Time;durP1;ratioP1;P1;durP2;ratioP2;P2;SDS_P1;SDS_P2;PMS_P1;PMS_P2;Temp;Humidity;BMP_temperature;BMP_pressure;BME280_temperature;BME280_humidity;BME280_pressure;Samples;Min_cycle;Max_cycle;Signal;HPM_P1;HPM_P2
2022/10/17 02:49:18;;;;;;;21.53;19.90;;;13.10;99.90;;;;;;5206383;23;20490;-77
2022/10/17 02:51:52;;;;;;;23.03;20.70;;;13.10;99.90;;;;;;5011287;28;20488;-76
2022/10/17 02:54:23;;;;;;;22.87;21.07;;;13.10;99.90;;;;;;5006828;28;20446;-74
2022/10/17 02:56:54;;;;;;;22.13;20.07;;;13.10;99.90;;;;;;5010492;28;20450;-75
2022/10/17 02:59:22;;;;;;;21.37;19.97;;;13.10;99.90;;;;;;5011068;28;20863;-74
2022/10/17 03:01:50;;;;;;;21.60;20.03;;;13.10;99.90;;;;;;5010901;28;20815;-76
2022/10/17 03:04:19;;;;;;;21.27;19.83;;;13.10;99.90;;;;;;5010415;28;20458;-76
2022/10/17 03:06:48;;;;;;;22.57;21.07;;;13.10;99.90;;;;;;5010371;28;20460;-76
2022/10/17 03:09:14;;;;;;;21.63;20.13;;;13.10;99.90;;;;;;5010437;28;20939;-74
2022/10/17 03:11:41;;;;;;;21.60;20.20;;;13.00;99.90;;;;;;5010511;28;21003;-74
2022/10/17 03:14:08;;;;;;;21.20;19.53;;;13.00;99.90;;;;;;5010461;28;20454;-76
2022/10/17 03:16:35;;;;;;;21.63;20.33;;;13.00;99.90;;;;;;5010820;28;20774;-76
2022/10/17 03:19:02;;;;;;;20.97;19.67;;;13.00;99.90;;;;;;5010265;28;20453;-77
2022/10/17 03:21:30;;;;;;;21.57;20.13;;;12.90;99.90;;;;;;5009967;28;20454;-76
2022/10/17 03:23:56;;;;;;;21.87;20.13;;;12.90;99.90;;;;;;5009994;28;20450;-76
2022/10/17 03:26:23;;;;;;;21.77;20.13;;;12.90;99.90;;;;;;5010180;28;20801;-78
2022/10/17 03:28:50;;;;;;;23.10;21.30;;;12.90;99.90;;;;;;5010343;28;20449;-78
2022/10/17 03:31:17;;;;;;;21.13;19.60;;;13.00;99.90;;;;;;5009974;28;20462;-77
2022/10/17 03:33:44;;;;;;;22.53;20.20;;;13.00;99.90;;;;;;5009903;28;20497;-78
2022/10/17 03:36:13;;;;;;;22.17;20.50;;;13.10;99.90;;;;;;5010001;28;20943;-77
2022/10/17 03:38:42;;;;;;;21.53;20.00;;;13.00;99.90;;;;;;5010074;28;20477;-79
2022/10/17 03:41:09;;;;;;;23.40;21.50;;;13.00;99.90;;;;;;5010252;28;20465;-78
2022/10/17 03:43:36;;;;;;;21.77;20.30;;;13.10;99.90;;;;;;5010644;28;20526;-77
2022/10/17 03:46:03;;;;;;;21.67;20.30;;;13.10;99.90;;;;;;5009735;28;20476;-75
2022/10/17 03:48:30;;;;;;;22.47;20.63;;;13.10;99.90;;;;;;5008533;28;20481;-75
2022/10/17 03:51:00;;;;;;;23.90;21.53;;;13.10;99.90;;;;;;5009418;28;20458;-75
2022/10/17 03:53:27;;;;;;;25.57;23.30;;;13.00;99.90;;;;;;5009665;28;20568;-75
2022/10/17 03:55:56;;;;;;;24.70;22.67;;;13.00;99.90;;;;;;5009174;28;20454;-76
2022/10/17 03:58:23;;;;;;;25.43;23.47;;;13.10;99.90;;;;;;5009301;28;20962;-75
2022/10/17 04:00:50;;;;;;;26.10;23.60;;;13.00;99.90;;;;;;5009723;28;20966;-76
2022/10/17 04:03:16;;;;;;;26.30;23.93;;;13.00;99.90;;;;;;5009309;28;20521;-75
2022/10/17 04:05:43;;;;;;;25.00;22.90;;;13.00;99.90;;;;;;5009473;28;20450;-76
2022/10/17 04:08:10;;;;;;;23.33;21.73;;;13.10;99.90;;;;;;5009400;28;20454;-75
2022/10/17 04:10:36;;;;;;;23.47;21.83;;;13.00;99.90;;;;;;5009730;28;20468;-76
2022/10/17 04:13:05;;;;;;;23.07;21.57;;;13.00;99.90;;;;;;5009395;28;21025;-78
2022/10/17 04:15:32;;;;;;;23.93;22.07;;;13.00;99.90;;;;;;5008866;28;20446;-78
2022/10/17 04:17:58;;;;;;;22.73;21.23;;;13.00;99.90;;;;;;5009113;28;20937;-78
2022/10/17 04:20:25;;;;;;;23.40;21.30;;;13.00;99.90;;;;;;5009116;28;20454;-78
2022/10/17 04:22:52;;;;;;;22.00;20.50;;;13.00;99.90;;;;;;5009428;28;20454;-84
2022/10/17 04:25:18;;;;;;;23.03;21.37;;;12.90;99.90;;;;;;5009541;28;20454;-76
2022/10/17 04:27:45;;;;;;;22.27;20.50;;;12.90;99.90;;;;;;5009161;28;20894;-75
2022/10/17 04:30:13;;;;;;;24.00;21.87;;;12.90;99.90;;;;;;5009492;28;20719;-77
2022/10/17 04:32:40;;;;;;;22.57;21.10;;;12.90;99.90;;;;;;5009144;28;20485;-74
2022/10/17 04:35:07;;;;;;;22.87;21.43;;;12.90;99.90;;;;;;5009613;28;20450;-75
2022/10/17 04:37:34;;;;;;;21.80;20.40;;;12.90;99.90;;;;;;5009450;28;20948;-76
2022/10/17 04:40:01;;;;;;;22.83;21.43;;;13.00;99.90;;;;;;5008994;28;20553;-76
2022/10/17 04:42:29;;;;;;;22.90;21.50;;;13.00;99.90;;;;;;5008871;28;20926;-75
2022/10/17 04:44:55;;;;;;;22.90;21.20;;;12.90;99.90;;;;;;5009191;28;20482;-75
2022/10/17 04:47:23;;;;;;;23.80;22.03;;;12.90;99.90;;;;;;5008939;28;20469;-76
2022/10/17 04:49:50;;;;;;;24.93;22.50;;;12.90;99.90;;;;;;5009333;28;20454;-80
2022/10/17 04:52:17;;;;;;;24.10;22.50;;;12.90;99.90;;;;;;5008931;28;20478;-78
2022/10/17 04:54:43;;;;;;;23.40;21.83;;;12.90;99.90;;;;;;5009089;28;20454;-77
2022/10/17 04:57:11;;;;;;;25.83;23.83;;;12.90;99.90;;;;;;5009485;28;20866;-76
2022/10/17 04:59:38;;;;;;;24.00;22.50;;;12.90;99.90;;;;;;5009346;28;20501;-77
2022/10/17 05:02:04;;;;;;;23.60;21.90;;;12.90;99.90;;;;;;5009469;28;20450;-77
2022/10/17 05:04:32;;;;;;;24.63;22.83;;;12.80;99.90;;;;;;5008812;28;20560;-78
2022/10/17 05:06:59;;;;;;;21.53;20.13;;;12.80;99.90;;;;;;5008743;28;20461;-78
2022/10/17 05:09:27;;;;;;;22.40;20.80;;;12.80;99.90;;;;;;5008791;28;20454;-77
2022/10/17 05:11:53;;;;;;;21.33;19.53;;;12.80;99.90;;;;;;5009012;28;20907;-77
2022/10/17 05:14:20;;;;;;;21.90;20.17;;;12.80;99.90;;;;;;5009038;28;20493;-78
2022/10/17 05:16:47;;;;;;;22.73;21.10;;;12.80;99.90;;;;;;5008676;28;20450;-78
2022/10/17 05:19:14;;;;;;;22.50;21.00;;;12.80;99.90;;;;;;5008561;28;20450;-77
2022/10/17 05:21:42;;;;;;;23.07;21.10;;;12.80;99.90;;;;;;5010811;28;20458;-77
2022/10/17 05:24:10;;;;;;;26.17;21.90;;;12.80;99.90;;;;;;5010850;28;20825;-79
2022/10/17 05:26:37;;;;;;;23.33;21.90;;;12.80;99.90;;;;;;5011834;28;20465;-81
2022/10/17 05:29:04;;;;;;;26.33;24.23;;;12.80;99.90;;;;;;5012694;28;20489;-82
2022/10/17 05:31:31;;;;;;;24.97;22.97;;;12.80;99.90;;;;;;5009109;28;20450;-77
2022/10/17 05:34:01;;;;;;;27.37;24.60;;;12.80;99.90;;;;;;5009067;28;21113;-77
2022/10/17 05:36:28;;;;;;;29.90;27.23;;;12.80;99.90;;;;;;5009447;28;20766;-78
2022/10/17 05:38:56;;;;;;;30.93;28.43;;;12.80;99.90;;;;;;5009980;28;20450;-78
2022/10/17 05:41:22;;;;;;;31.70;28.83;;;12.80;99.90;;;;;;5009633;28;20955;-78
2022/10/17 05:43:49;;;;;;;27.67;25.00;;;12.80;99.90;;;;;;5009479;28;20777;-78
2022/10/17 05:46:16;;;;;;;24.20;22.57;;;12.80;99.90;;;;;;5009461;28;20466;-77
2022/10/17 05:48:43;;;;;;;23.63;21.90;;;12.80;99.90;;;;;;5008856;28;20489;-78
2022/10/17 05:51:10;;;;;;;23.53;21.70;;;12.90;99.90;;;;;;5009357;28;20454;-77
2022/10/17 05:53:39;;;;;;;23.30;21.70;;;12.80;99.90;;;;;;5008991;28;20485;-77
2022/10/17 05:56:09;;;;;;;25.40;23.20;;;12.80;99.90;;;;;;5009472;28;20462;-77
2022/10/17 05:58:36;;;;;;;24.93;20.70;;;12.90;99.90;;;;;;5009363;28;20450;-76
2022/10/17 06:01:06;;;;;;;23.03;21.07;;;12.90;99.90;;;;;;5008824;28;20461;-77
2022/10/17 06:03:33;;;;;;;24.77;22.53;;;12.90;99.90;;;;;;5008647;28;20450;-76
2022/10/17 06:06:04;;;;;;;25.43;22.73;;;12.90;99.90;;;;;;5008419;28;20556;-76
2022/10/17 06:08:31;;;;;;;25.27;23.23;;;12.90;99.90;;;;;;5008463;28;20456;-76
2022/10/17 06:10:57;;;;;;;27.00;24.43;;;12.90;99.90;;;;;;5009781;28;20485;-76
2022/10/17 06:13:26;;;;;;;30.33;27.83;;;12.90;99.90;;;;;;5012083;28;20489;-76
2022/10/17 06:15:52;;;;;;;28.13;25.70;;;12.90;99.90;;;;;;5012618;28;20453;-77
2022/10/17 06:18:19;;;;;;;25.30;23.37;;;12.90;99.90;;;;;;5012641;28;20452;-76
2022/10/17 06:20:46;;;;;;;24.27;21.17;;;12.90;99.90;;;;;;5012547;28;20797;-76
2022/10/17 06:23:13;;;;;;;26.93;24.47;;;13.00;99.90;;;;;;5012839;28;20453;-77
2022/10/17 06:25:40;;;;;;;28.23;26.03;;;13.00;99.90;;;;;;5012641;28;20783;-77
2022/10/17 06:28:06;;;;;;;25.33;23.00;;;13.10;99.90;;;;;;5012632;28;20784;-77
2022/10/17 06:30:34;;;;;;;24.53;22.20;;;13.30;99.90;;;;;;5012561;28;20458;-76
2022/10/17 06:33:01;;;;;;;23.03;21.00;;;13.40;99.90;;;;;;5012032;28;20492;-76
2022/10/17 06:35:28;;;;;;;23.30;21.17;;;13.70;99.90;;;;;;5011659;28;20475;-75
2022/10/17 06:37:54;;;;;;;23.07;21.20;;;13.90;99.90;;;;;;5011464;28;20454;-75
2022/10/17 06:40:21;;;;;;;24.07;22.20;;;14.00;99.90;;;;;;5011735;28;20450;-75
2022/10/17 06:42:48;;;;;;;21.23;19.57;;;14.10;99.90;;;;;;5011624;28;20473;-75
2022/10/17 06:45:15;;;;;;;21.90;20.20;;;14.20;99.90;;;;;;5011475;28;20939;-74
2022/10/17 06:47:43;;;;;;;19.97;18.47;;;14.20;99.90;;;;;;5010666;28;20485;-73
2022/10/17 06:50:09;;;;;;;18.23;16.97;;;14.30;99.90;;;;;;5010865;28;20457;-73
2022/10/17 06:52:36;;;;;;;18.20;17.10;;;14.40;99.90;;;;;;5011463;28;20457;-73
2022/10/17 06:55:03;;;;;;;19.00;17.60;;;14.40;99.90;;;;;;5011571;28;20454;-73
2022/10/17 06:57:30;;;;;;;20.53;18.90;;;14.50;99.90;;;;;;5011155;28;20465;-73
2022/10/17 06:59:57;;;;;;;19.63;18.30;;;14.80;99.90;;;;;;5011223;28;20445;-73
2022/10/17 07:02:24;;;;;;;18.50;17.27;;;15.00;99.90;;;;;;5010965;28;20454;-73
2022/10/17 07:04:52;;;;;;;18.03;16.40;;;15.30;99.90;;;;;;5011308;28;20446;-73
2022/10/17 07:07:19;;;;;;;18.83;17.20;;;15.40;99.90;;;;;;5011429;28;20442;-73
2022/10/17 07:09:46;;;;;;;18.70;17.40;;;15.60;99.90;;;;;;5010852;28;20450;-73
2022/10/17 07:12:12;;;;;;;18.57;16.80;;;15.50;99.90;;;;;;4993354;28;20732;-73
2022/10/17 07:14:39;;;;;;;17.83;16.50;;;15.70;99.90;;;;;;4991130;28;20490;-73
2022/10/17 07:17:06;;;;;;;17.87;16.77;;;15.80;99.90;;;;;;4991293;28;20462;-72
2022/10/17 07:19:33;;;;;;;19.53;17.93;;;15.90;99.90;;;;;;4991175;28;20442;-73
2022/10/17 07:22:01;;;;;;;15.13;14.00;;;16.10;99.90;;;;;;4990783;28;20585;-73
2022/10/17 07:24:28;;;;;;;15.10;14.23;;;16.30;99.90;;;;;;4990686;28;20447;-72
2022/10/17 07:26:54;;;;;;;15.37;14.40;;;16.50;99.90;;;;;;4990966;28;20466;-75
2022/10/17 07:29:21;;;;;;;14.37;13.57;;;16.70;99.90;;;;;;4991414;28;20450;-73
2022/10/17 07:31:49;;;;;;;15.77;14.60;;;16.90;99.90;;;;;;4990960;28;20924;-72
2022/10/17 07:34:15;;;;;;;13.77;13.07;;;17.00;99.90;;;;;;4990892;28;20594;-73
2022/10/17 07:36:42;;;;;;;13.73;13.00;;;17.30;99.90;;;;;;4990662;28;20459;-72
2022/10/17 07:39:10;;;;;;;13.97;12.80;;;17.70;99.90;;;;;;4990616;28;20489;-75
2022/10/17 07:41:37;;;;;;;15.77;14.47;;;18.20;99.90;;;;;;4990816;28;20953;-81
2022/10/17 07:44:04;;;;;;;13.20;12.60;;;18.40;99.90;;;;;;4991450;28;20457;-76
2022/10/17 07:46:31;;;;;;;13.27;12.40;;;18.60;99.90;;;;;;4990613;28;20482;-72
2022/10/17 07:48:57;;;;;;;13.50;12.80;;;18.80;99.90;;;;;;4990318;28;20628;-72
2022/10/17 07:51:24;;;;;;;13.67;12.97;;;18.80;99.90;;;;;;4990689;28;20459;-75
2022/10/17 07:53:51;;;;;;;13.30;12.70;;;18.80;99.90;;;;;;4990478;28;20502;-75
2022/10/17 07:56:23;;;;;;;14.20;13.20;;;18.80;99.90;;;;;;4990734;28;20454;-73
2022/10/17 07:58:50;;;;;;;12.93;12.23;;;18.90;99.90;;;;;;4991124;28;20513;-72
2022/10/17 08:01:18;;;;;;;13.00;12.20;;;19.00;99.90;;;;;;4988408;28;20454;-72
2022/10/17 08:03:45;;;;;;;13.53;12.83;;;18.90;99.90;;;;;;4990101;28;20454;-72
2022/10/17 08:06:13;;;;;;;13.47;12.67;;;19.10;99.90;;;;;;4990237;28;20486;-72
2022/10/17 08:08:40;;;;;;;12.27;11.67;;;19.60;99.90;;;;;;4989865;28;20858;-72
2022/10/17 08:11:10;;;;;;;12.97;12.37;;;19.70;99.90;;;;;;4990139;28;20449;-73
2022/10/17 08:13:39;;;;;;;12.60;12.00;;;19.70;99.90;;;;;;4989903;28;21023;-74
2022/10/17 08:16:08;;;;;;;13.50;12.70;;;19.70;99.90;;;;;;4990174;28;20553;-74
2022/10/17 08:18:35;;;;;;;13.30;12.37;;;19.80;99.90;;;;;;4990046;28;20455;-74
2022/10/17 08:21:05;;;;;;;12.70;12.00;;;19.80;99.90;;;;;;4989906;28;20458;-73
2022/10/17 08:23:31;;;;;;;13.60;12.90;;;19.70;99.90;;;;;;4989814;28;20510;-73
2022/10/17 08:26:00;;;;;;;12.40;11.80;;;19.70;99.90;;;;;;4989717;28;20454;-74
2022/10/17 08:28:27;;;;;;;13.37;12.00;;;19.70;99.90;;;;;;4989659;28;20898;-74
2022/10/17 08:31:02;;;;;;;11.80;11.20;;;20.10;99.90;;;;;;4989767;28;20937;-74
2022/10/17 08:33:29;;;;;;;13.93;12.80;;;20.40;99.90;;;;;;4989512;28;20493;-74
2022/10/17 08:35:57;;;;;;;13.90;12.90;;;20.30;99.90;;;;;;4989811;28;20450;-75
2022/10/17 08:38:24;;;;;;;13.87;13.17;;;20.20;99.90;;;;;;4989869;28;20455;-73
2022/10/17 08:40:51;;;;;;;11.80;11.20;;;20.40;99.90;;;;;;4989989;28;20451;-74
2022/10/17 08:43:34;;;;;;;13.40;12.50;;;20.50;99.90;;;;;;4989588;28;20447;-75
2022/10/17 08:46:06;;;;;;;16.03;12.90;;;20.60;99.90;;;;;;4989296;28;20450;-74
2022/10/17 08:48:38;;;;;;;13.17;12.47;;;20.60;99.90;;;;;;4989603;28;20494;-73
2022/10/17 08:51:12;;;;;;;14.20;12.80;;;20.80;99.90;;;;;;4989771;28;20459;-75
2022/10/17 08:53:43;;;;;;;13.43;12.53;;;21.30;99.90;;;;;;4989431;28;20855;-74
2022/10/17 08:56:17;;;;;;;13.80;12.80;;;21.70;99.90;;;;;;4989411;28;20473;-74
2022/10/17 08:58:43;;;;;;;12.93;12.00;;;22.30;99.90;;;;;;4989366;28;20841;-74
2022/10/17 09:01:25;;;;;;;13.87;13.17;;;22.50;99.90;;;;;;4989106;28;20466;-75
2022/10/17 09:04:11;;;;;;;13.73;13.00;;;22.80;99.90;;;;;;4989256;28;20451;-74
2022/10/17 09:06:43;;;;;;;14.60;13.70;;;23.20;99.90;;;;;;4989223;28;20447;-74
2022/10/17 09:09:21;;;;;;;15.83;14.43;;;23.30;99.90;;;;;;4989178;28;20478;-73
2022/10/17 09:12:09;;;;;;;14.63;13.83;;;23.50;99.90;;;;;;4989626;28;20801;-74
2022/10/17 09:15:12;;;;;;;13.03;12.33;;;23.60;99.90;;;;;;4989575;28;20486;-75
2022/10/17 09:17:51;;;;;;;14.00;13.20;;;23.20;99.90;;;;;;4989230;28;20824;-74
2022/10/17 09:20:21;;;;;;;12.87;12.27;;;22.80;99.90;;;;;;4989768;28;20557;-75
2022/10/17 09:22:53;;;;;;;13.00;12.10;;;22.60;99.90;;;;;;4989354;28;20454;-75
2022/10/17 09:25:20;;;;;;;13.03;12.23;;;22.60;99.90;;;;;;4989298;28;20447;-75
2022/10/17 09:27:51;;;;;;;14.03;13.00;;;22.70;99.90;;;;;;4988887;28;20459;-75
2022/10/17 09:30:27;;;;;;;13.33;12.63;;;22.90;99.90;;;;;;4989421;28;20451;-73
2022/10/17 09:32:55;;;;;;;13.10;12.20;;;23.30;99.90;;;;;;4988690;28;20951;-75
2022/10/17 09:35:24;;;;;;;13.63;12.70;;;23.20;99.90;;;;;;4988844;28;20482;-74
2022/10/17 09:37:51;;;;;;;14.83;13.70;;;23.00;99.90;;;;;;4989278;28;20447;-74
2022/10/17 09:40:23;;;;;;;14.90;13.80;;;23.00;99.90;;;;;;4989263;28;20461;-73
2022/10/17 09:42:51;;;;;;;14.53;13.63;;;23.10;99.90;;;;;;4989308;28;20466;-74
2022/10/17 09:45:23;;;;;;;14.87;13.80;;;23.30;99.90;;;;;;4989161;28;20451;-72
2022/10/17 09:47:58;;;;;;;15.13;13.63;;;23.40;99.90;;;;;;4993059;28;20924;-75
2022/10/17 09:50:27;;;;;;;14.83;14.03;;;23.20;99.90;;;;;;4992889;28;20457;-74
2022/10/17 09:52:56;;;;;;;14.43;13.37;;;23.20;99.90;;;;;;4992723;28;20470;-73
2022/10/17 09:55:31;;;;;;;15.00;14.00;;;23.60;99.90;;;;;;4992396;28;20487;-73
2022/10/17 09:57:59;;;;;;;14.30;13.30;;;23.90;99.90;;;;;;4992433;28;20449;-74
2022/10/17 10:00:28;;;;;;;19.30;14.60;;;23.80;99.90;;;;;;4992257;28;20446;-74
2022/10/17 10:03:12;;;;;;;15.63;14.57;;;24.10;99.90;;;;;;4992216;28;20455;-75
2022/10/17 10:05:40;;;;;;;14.87;13.40;;;24.50;99.90;;;;;;4992264;28;20450;-75
2022/10/17 10:08:14;;;;;;;13.90;13.30;;;24.80;99.90;;;;;;4992692;28;20451;-72
2022/10/17 10:10:42;;;;;;;15.13;13.87;;;24.70;99.90;;;;;;4991853;28;20453;-73
2022/10/17 10:13:19;;;;;;;14.07;13.10;;;24.20;99.90;;;;;;4991590;28;20486;-73
2022/10/17 10:15:48;;;;;;;14.30;13.50;;;24.30;99.90;;;;;;4991736;28;20496;-74
2022/10/17 10:18:35;;;;;;;15.70;14.80;;;24.30;99.90;;;;;;4992114;28;20459;-74
2022/10/17 10:21:08;;;;;;;15.03;14.00;;;24.60;99.90;;;;;;4992125;28;20450;-75
2022/10/17 10:23:38;;;;;;;14.93;13.77;;;24.80;99.90;;;;;;4992540;28;20455;-75
2022/10/17 10:26:18;;;;;;;14.07;13.30;;;25.20;99.90;;;;;;4992129;28;20458;-75
2022/10/17 10:28:52;;;;;;;15.33;14.23;;;25.30;99.90;;;;;;4991654;28;20458;-75
2022/10/17 10:31:26;;;;;;;14.70;13.30;;;25.50;99.90;;;;;;4991963;28;20754;-75
2022/10/17 10:33:55;;;;;;;13.57;12.67;;;25.40;99.80;;;;;;4991766;28;20897;-74
2022/10/17 10:36:23;;;;;;;15.10;14.00;;;25.10;99.90;;;;;;4991963;28;20447;-75
2022/10/17 10:38:54;;;;;;;14.43;13.50;;;25.20;99.90;;;;;;4991783;28;20955;-74
2022/10/17 10:41:21;;;;;;;14.87;13.70;;;25.20;99.90;;;;;;4991838;28;20466;-74
2022/10/17 10:43:51;;;;;;;14.60;13.90;;;25.20;99.90;;;;;;4991957;28;20455;-74
2022/10/17 10:46:19;;;;;;;14.70;13.90;;;25.30;99.90;;;;;;4991994;28;20470;-74
2022/10/17 10:48:58;;;;;;;14.70;13.80;;;25.40;99.90;;;;;;4991517;28;20479;-74
2022/10/17 10:51:29;;;;;;;13.70;12.87;;;25.20;99.90;;;;;;4991620;28;20454;-74
2022/10/17 10:54:03;;;;;;;15.30;14.57;;;25.10;99.90;;;;;;4991557;28;20466;-74
2022/10/17 10:56:34;;;;;;;15.23;14.20;;;25.20;99.90;;;;;;4991041;28;20937;-74
2022/10/17 10:59:07;;;;;;;15.23;14.00;;;25.20;99.90;;;;;;4991255;28;20458;-75
2022/10/17 11:01:40;;;;;;;14.57;13.57;;;25.60;99.90;;;;;;4991480;28;20544;-75
2022/10/17 11:04:19;;;;;;;13.70;13.00;;;26.00;99.40;;;;;;4991649;28;20450;-75
2022/10/17 11:06:49;;;;;;;14.83;13.80;;;25.90;99.50;;;;;;4991413;28;20450;-74
2022/10/17 11:09:29;;;;;;;13.87;13.27;;;26.00;99.80;;;;;;4991018;28;20450;-74
2022/10/17 11:12:01;;;;;;;15.03;14.23;;;26.00;99.30;;;;;;4991042;28;20473;-74
2022/10/17 11:14:39;;;;;;;14.73;13.93;;;26.20;98.70;;;;;;4991144;28;20545;-75
2022/10/17 11:17:16;;;;;;;14.63;13.80;;;26.00;99.10;;;;;;4991451;28;20454;-74
2022/10/17 11:19:51;;;;;;;14.67;13.70;;;26.20;98.90;;;;;;4990762;28;20473;-75
2022/10/17 11:22:26;;;;;;;15.30;14.30;;;26.60;98.10;;;;;;4990937;28;20944;-75
2022/10/17 11:24:58;;;;;;;14.50;13.70;;;26.90;97.30;;;;;;4990787;28;20457;-74
2022/10/17 11:27:27;;;;;;;14.67;13.70;;;27.70;96.10;;;;;;4990855;28;20557;-74
2022/10/17 11:29:54;;;;;;;14.00;13.10;;;28.00;94.90;;;;;;4990792;28;20451;-74
2022/10/17 11:32:25;;;;;;;14.80;14.00;;;28.20;94.10;;;;;;4991007;28;20458;-75
2022/10/17 11:34:59;;;;;;;14.77;13.80;;;28.40;93.20;;;;;;4990685;28;20482;-74
2022/10/17 11:37:30;;;;;;;15.20;14.30;;;28.70;92.50;;;;;;4990631;28;20454;-75
2022/10/17 11:40:01;;;;;;;14.43;13.73;;;28.80;91.70;;;;;;4990751;28;20834;-75
2022/10/17 11:42:33;;;;;;;14.33;13.63;;;29.10;91.00;;;;;;4990515;28;20768;-75
2022/10/17 11:45:03;;;;;;;14.90;14.20;;;29.20;90.70;;;;;;4990569;28;20450;-75
2022/10/17 11:47:38;;;;;;;14.43;13.67;;;29.20;90.20;;;;;;4990316;28;20478;-73
2022/10/17 11:50:19;;;;;;;15.40;14.40;;;29.50;89.70;;;;;;4990853;28;20450;-75
2022/10/17 11:52:50;;;;;;;14.30;13.20;;;29.40;89.50;;;;;;4990438;28;20451;-75
2022/10/17 11:55:21;;;;;;;14.47;13.67;;;29.60;88.00;;;;;;4990245;28;21018;-74
2022/10/17 11:58:01;;;;;;;14.97;13.60;;;29.70;87.70;;;;;;4990200;28;20457;-75
2022/10/17 12:00:42;;;;;;;15.43;14.37;;;29.70;85.70;;;;;;4989980;28;20462;-76
2022/10/17 12:03:22;;;;;;;15.50;14.60;;;30.00;86.20;;;;;;4990011;28;20847;-75
2022/10/17 12:05:55;;;;;;;16.57;15.17;;;31.10;81.40;;;;;;4990259;28;20458;-75
2022/10/17 12:08:29;;;;;;;17.00;15.90;;;31.10;78.30;;;;;;4989873;28;20454;-74
2022/10/17 12:11:03;;;;;;;17.33;16.13;;;31.20;76.70;;;;;;4990277;28;20462;-76
2022/10/17 12:13:48;;;;;;;14.20;13.60;;;31.60;70.30;;;;;;4990255;28;20450;-76
2022/10/17 12:16:48;;;;;;;13.80;13.13;;;32.40;66.20;;;;;;4989610;28;20486;-74
2022/10/17 12:19:27;;;;;;;15.23;14.33;;;33.60;62.20;;;;;;4989721;28;20447;-75
2022/10/17 12:22:05;;;;;;;15.40;14.50;;;35.20;59.30;;;;;;4989780;28;20799;-76
2022/10/17 12:24:36;;;;;;;14.60;13.93;;;36.10;56.20;;;;;;4989545;28;20456;-75
2022/10/17 12:27:36;;;;;;;15.13;14.47;;;36.70;53.00;;;;;;4989523;28;20508;-75
2022/10/17 12:30:06;;;;;;;14.87;14.17;;;37.20;49.80;;;;;;4989608;28;20813;-76
2022/10/17 12:32:34;;;;;;;14.57;13.87;;;36.50;49.80;;;;;;4989620;28;20462;-75
2022/10/17 12:35:01;;;;;;;13.60;13.03;;;35.30;50.60;;;;;;4989200;28;20486;-73
2022/10/17 12:38:15;;;;;;;14.67;14.00;;;35.20;51.40;;;;;;4989063;28;20659;-74
2022/10/17 12:41:02;;;;;;;15.03;14.33;;;35.20;50.70;;;;;;4989153;28;21039;-75
2022/10/17 12:43:56;;;;;;;13.90;13.30;;;35.40;51.10;;;;;;4985991;28;20777;-75
2022/10/17 12:46:55;;;;;;;14.90;14.10;;;35.10;49.60;;;;;;4989193;28;20470;-76
2022/10/17 12:49:39;;;;;;;13.67;13.07;;;34.60;50.40;;;;;;4989319;28;20489;-75
2022/10/17 12:52:20;;;;;;;14.40;13.77;;;33.60;51.80;;;;;;4989589;28;20443;-75
2022/10/17 12:54:53;;;;;;;13.77;13.20;;;32.60;53.80;;;;;;4989253;28;20492;-76
2022/10/17 12:57:23;;;;;;;14.17;13.50;;;32.80;53.00;;;;;;4989448;28;20469;-75
2022/10/17 12:59:49;;;;;;;14.43;13.80;;;32.90;54.20;;;;;;4989200;28;20473;-75
2022/10/17 13:02:20;;;;;;;14.23;13.63;;;32.70;54.20;;;;;;4988516;28;20447;-75
2022/10/17 13:04:48;;;;;;;13.50;13.10;;;32.90;52.70;;;;;;4988806;28;20450;-75
2022/10/17 13:07:20;;;;;;;13.47;12.90;;;33.00;53.20;;;;;;4989077;28;20451;-75
2022/10/17 13:09:50;;;;;;;14.03;13.23;;;32.40;54.00;;;;;;4989311;28;20458;-75
2022/10/17 13:12:22;;;;;;;13.93;13.37;;;32.20;55.00;;;;;;4989049;28;20470;-75
2022/10/17 13:14:52;;;;;;;13.40;12.90;;;31.50;55.80;;;;;;4989496;28;20470;-75
2022/10/17 13:17:26;;;;;;;14.60;13.50;;;31.10;57.00;;;;;;4989619;28;20553;-74
2022/10/17 13:19:53;;;;;;;14.97;13.83;;;30.20;58.70;;;;;;4990179;28;20965;-75
2022/10/17 13:22:22;;;;;;;13.73;12.93;;;29.30;60.70;;;;;;4993316;28;20455;-75
2022/10/17 13:24:52;;;;;;;12.70;12.20;;;28.70;62.20;;;;;;4993001;28;20463;-75
2022/10/17 13:27:26;;;;;;;13.53;12.63;;;28.40;63.40;;;;;;4993013;28;20461;-75
2022/10/17 13:29:55;;;;;;;12.67;12.17;;;28.10;63.90;;;;;;4992755;28;20479;-75
2022/10/17 13:32:22;;;;;;;12.67;12.07;;;27.90;65.40;;;;;;4993305;28;20454;-75
2022/10/17 13:35:05;;;;;;;13.73;13.07;;;27.70;65.90;;;;;;4993064;28;20454;-75
2022/10/17 13:37:31;;;;;;;13.70;12.83;;;27.60;77.30;;;;;;4992477;28;20466;-75
2022/10/17 13:40:00;;;;;;;13.17;12.37;;;27.10;83.30;;;;;;4992549;28;20495;-74
2022/10/17 13:42:36;;;;;;;13.80;12.97;;;26.90;86.30;;;;;;4992536;28;20544;-75
2022/10/17 13:45:03;;;;;;;13.67;12.97;;;26.50;88.80;;;;;;4992645;28;20434;-75
2022/10/17 13:47:36;;;;;;;14.23;13.40;;;26.50;90.40;;;;;;4992357;28;20470;-75
2022/10/17 13:50:03;;;;;;;14.87;13.97;;;26.40;90.50;;;;;;4992535;28;20957;-74
2022/10/17 13:52:30;;;;;;;13.27;12.57;;;26.40;91.40;;;;;;4992521;28;20446;-75
2022/10/17 13:55:10;;;;;;;15.40;14.43;;;26.40;91.10;;;;;;4992017;28;20565;-74
2022/10/17 13:57:37;;;;;;;14.53;13.60;;;26.30;91.40;;;;;;4992598;28;20569;-72
2022/10/17 14:00:07;;;;;;;13.93;13.03;;;26.30;91.90;;;;;;4992895;28;20458;-72
2022/10/17 14:02:35;;;;;;;13.70;13.00;;;26.30;91.30;;;;;;4992905;28;20734;-72
2022/10/17 14:05:06;;;;;;;13.77;13.10;;;26.30;91.20;;;;;;4992536;28;20447;-72
2022/10/17 14:07:37;;;;;;;13.60;12.93;;;26.30;91.20;;;;;;4992380;28;20565;-72
2022/10/17 14:10:06;;;;;;;13.30;12.43;;;26.30;91.40;;;;;;4998413;28;20450;-73
2022/10/17 14:12:34;;;;;;;12.60;11.80;;;26.30;91.50;;;;;;5001394;28;20441;-72
2022/10/17 14:15:04;;;;;;;12.47;11.83;;;26.30;91.10;;;;;;5002694;28;20557;-73
2022/10/17 14:17:31;;;;;;;12.97;12.07;;;26.30;91.50;;;;;;5001454;28;20454;-73
2022/10/17 14:20:02;;;;;;;13.90;12.97;;;26.30;91.60;;;;;;5000946;28;20635;-73
2022/10/17 14:22:33;;;;;;;13.67;12.77;;;26.30;91.20;;;;;;5001705;28;20443;-73
2022/10/17 14:25:00;;;;;;;12.20;11.50;;;26.30;91.30;;;;;;5000995;28;20489;-72
2022/10/17 14:27:30;;;;;;;13.50;12.60;;;26.30;91.20;;;;;;5001899;28;20450;-72
2022/10/17 14:30:01;;;;;;;12.97;12.27;;;26.30;90.70;;;;;;5002240;28;20455;-72
2022/10/17 14:32:29;;;;;;;12.90;12.00;;;26.20;90.50;;;;;;5000199;28;20953;-73
2022/10/17 14:34:57;;;;;;;12.80;11.93;;;26.30;90.60;;;;;;5000854;28;20814;-73
2022/10/17 14:37:38;;;;;;;12.10;11.30;;;26.20;89.20;;;;;;5000003;28;20784;-73
2022/10/17 14:40:06;;;;;;;13.40;12.43;;;26.20;88.70;;;;;;5000722;28;20455;-72
2022/10/17 14:42:39;;;;;;;12.87;11.87;;;26.00;88.70;;;;;;5001481;28;20449;-72
2022/10/17 14:45:13;;;;;;;13.70;12.93;;;25.90;89.10;;;;;;5001218;28;20447;-72
2022/10/17 14:47:41;;;;;;;13.60;12.60;;;25.70;89.70;;;;;;4999943;28;20822;-72
2022/10/17 14:50:22;;;;;;;14.80;13.97;;;25.70;90.20;;;;;;5002039;28;20454;-73
2022/10/17 14:52:59;;;;;;;12.40;11.90;;;25.60;90.50;;;;;;5000879;28;20945;-73
2022/10/17 14:55:28;;;;;;;12.00;11.40;;;25.60;90.30;;;;;;5000544;28;20518;-73
2022/10/17 14:57:56;;;;;;;12.63;12.13;;;25.50;90.10;;;;;;5000442;28;20916;-73
2022/10/17 15:00:25;;;;;;;12.70;11.83;;;25.40;90.50;;;;;;4999633;28;20435;-72
2022/10/17 15:02:54;;;;;;;13.37;12.47;;;25.40;90.70;;;;;;4991949;28;20451;-73
2022/10/17 15:05:22;;;;;;;13.13;12.43;;;25.40;90.70;;;;;;4991744;28;20463;-72
2022/10/17 15:07:49;;;;;;;13.23;12.57;;;25.50;90.50;;;;;;4992073;28;20478;-73
2022/10/17 15:10:31;;;;;;;14.20;13.30;;;25.50;90.60;;;;;;4991693;28;20458;-74
2022/10/17 15:13:00;;;;;;;14.03;13.23;;;25.50;90.90;;;;;;4989837;28;20902;-72
2022/10/17 15:15:28;;;;;;;13.07;12.27;;;25.40;91.00;;;;;;4990487;28;20494;-75
2022/10/17 15:17:55;;;;;;;13.40;12.70;;;25.30;91.40;;;;;;4974002;28;20813;-77
2022/10/17 15:20:26;;;;;;;12.63;12.13;;;25.20;91.50;;;;;;4990217;28;20447;-75
2022/10/17 15:22:53;;;;;;;12.80;12.20;;;25.00;91.90;;;;;;4991404;28;20462;-74
2022/10/17 15:25:20;;;;;;;12.90;12.40;;;24.90;92.20;;;;;;4991485;28;20963;-76
2022/10/17 15:27:47;;;;;;;12.33;11.83;;;24.80;92.30;;;;;;4991147;28;20455;-75
2022/10/17 15:30:20;;;;;;;13.23;12.37;;;24.70;92.60;;;;;;4990793;28;20461;-76
2022/10/17 15:32:48;;;;;;;13.17;12.30;;;24.70;92.70;;;;;;4991131;28;20454;-74